Terminal Aerodrome Forecast
Issued by NWS Mt. Holly, NJ

Home | Current Version | Previous Version | Text Only | Print | Product List | Glossary On
Versions: 1 2 3 4 5 6 7 8 9 10 11 12 13 14
000
FTUS41 KPHI 272300
TAFILG
TAF
KILG 272320Z 2800/2824 23007KT P6SM FEW050
     FM280500 28005KT P6SM BKN050
     FM280800 33009KT P6SM FEW050
     FM281400 34010KT P6SM SKC
     FM281800 34012G20KT P6SM FEW040=

USA.gov is the U.S. government's official web portal to all federal, state and local government web resources and services.